イルクーツク国際空港の過去48時間の天気

イルクーツク国際空港 (Irkutsk)

現在時刻: 9/23 07:42 +08 (9/22 23:42 UTC) 以下の時間は現地時間です。

過去48時間のMETAR気象情報
時間 風向 風速(m/s) 視程 気温(℃) 湿度(%) 気圧(hPa) 天気現象
23 07:00 東北東 2 350m 0 100 1020
23 06:30 2 350m 3 100 1019 部分霧
23 06:00 2 4700m 1 100 1019 もや
23 05:30 北東 3 1900m 1 100 1019 もや
23 05:00 東北東 3 450m 1 100 1019 部分霧
23 04:30 北東 2 600m 1 100 1019
23 04:00 東北東 2 300m 2 100 1019
23 03:30 静穏 0 10km以上 4 100 1019
23 03:00 静穏 0 10km以上 4 100 1019
23 02:30 静穏 0 10km以上 5 100 1019
23 02:00 静穏 0 10km以上 5 100 1019
23 01:30 北西 2 10km以上 5 100 1019
23 01:00 北西 2 10km以上 5 100 1019 弱いしゅう雨
23 00:30 西北西 4 10km以上 6 100 1019 弱いしゅう雨
23 00:00 西北西 3 10km以上 6 100 1019 弱いしゅう雨
22 23:30 西 4 10km以上 6 100 1019 弱いしゅう雨
22 23:00 西 4 10km以上 6 100 1019 弱いしゅう雨
22 22:30 西 5 10km以上 6 93 1019 弱いしゅう雨
22 22:00 西 4 10km以上 6 93 1019
22 21:30 西 4 10km以上 7 87 1018
22 21:00 西 5 10km以上 7 87 1018 弱いしゅう雨
22 20:30 西北西 5 10km以上 7 93 1018 弱いしゅう雨
22 20:00 西 4 10km以上 7 87 1018 弱いしゅう雨
22 19:30 西北西 3 10km以上 7 87 1017 弱いしゅう雨
22 19:00 西北西 5 10km以上 8 76 1017
22 18:30 西北西 5 10km以上 8 76 1017
22 18:00 西北西 6 10km以上 8 71 1016
22 17:30 西北西 7 10km以上 9 66 1016
22 17:00 西北西 6 10km以上 9 66 1016
22 16:30 北西 6 10km以上 10 58 1015
22 16:00 北西 5 10km以上 10 58 1015
22 15:30 西北西 5 10km以上 10 58 1015
22 15:00 西北西 5 10km以上 10 62 1015
22 14:30 4 10km以上 11 50 1014
22 14:00 5 10km以上 11 47 1014
22 13:30 4 10km以上 11 47 1014
22 13:00 北西 5 10km以上 10 66 1015
22 12:30 西北西 5 10km以上 9 66 1015
22 12:00 西 5 10km以上 9 71 1015
22 11:30 西北西 4 10km以上 9 71 1015
22 11:00 西北西 3 10km以上 8 81 1015
22 10:30 北西 2 10km以上 7 93 1016
22 10:00 北北西 2 10km以上 6 100 1015
22 09:30 北西 2 10km以上 5 100 1015
22 09:00 不定 1 10km以上 3 100 1015
22 08:30 北東 2 10km以上 2 100 1015
22 08:00 不定 1 10km以上 2 100 1015
22 07:30 東北東 2 10km以上 1 100 1015
22 07:00 北東 2 10km以上 1 100 1014
22 06:30 2 10km以上 1 100 1014
22 06:00 東北東 2 10km以上 0 100 1014
22 05:30 東北東 2 10km以上 0 100 1014
22 05:00 3 10km以上 1 100 1014
22 04:30 2 10km以上 2 100 1014
22 04:00 東北東 2 10km以上 1 100 1014
22 03:30 不定 1 10km以上 2 100 1014
UIII 222300Z 07002MPS 040V110 0350 R12/0450D FG VV002 00/00 Q1020 R12/190055 NOSIG RMK QBB060 QFE722/0963
UIII 222230Z 09002MPS 0350 0250SE PRFG BKN002 03/03 Q1019 R12/290150 NOSIG RMK QBB060 QFE722/0963
UIII 222200Z 08002MPS 4700 2100NW BR BKN004 01/01 Q1019 R30/290150 NOSIG RMK QBB130 QFE720/0960
UIII 222130Z 05003MPS 1900 BR BKN003 01/01 Q1019 R30/290150 NOSIG RMK QBB100 QFE720/0960
UIII 222100Z 06003MPS 0450 0400NW PRFG BKN003 01/01 Q1019 R30/290150 NOSIG RMK QBB100 QFE720/0960
UIII 222030Z 05002MPS 0600 0500S R30/1400D FG BKN004 01/01 Q1019 R30/290150 NOSIG RMK QBB120 QFE719/0959
UIII 222000Z 07002MPS 0300 0200S R30/1000D FG VV004 02/02 Q1019 R30/290150 NOSIG RMK QBB130 QFE719/0959
UIII 221930Z 00000MPS 9999 BKN038CB 04/04 Q1019 R30/290150 NOSIG RMK QFE719/0959
UIII 221900Z 00000MPS 9999 BKN038CB 04/04 Q1019 R30/290150 NOSIG RMK QFE719/0959
UIII 221830Z 00000MPS 9999 BKN038CB 05/05 Q1019 R30/290150 NOSIG RMK QFE719/0959
UIII 221800Z 00000MPS 9999 BKN033CB 05/05 Q1019 R30/290150 NOSIG RMK QFE719/0959
UIII 221730Z 31002MPS 9999 BKN033CB 05/05 Q1019 R30/290150 NOSIG RMK QFE719/0959
UIII 221700Z 31002MPS 9999 -SHRA OVC034CB 05/05 Q1019 R30/290150 NOSIG RMK QFE719/0959
UIII 221630Z 30004MPS 9999 -SHRA OVC034CB 06/06 Q1019 R30/290150 NOSIG RMK QFE719/0959
UIII 221600Z 30003MPS 9999 -SHRA OVC031CB 06/06 Q1019 R30/290150 NOSIG RMK QFE719/0959
UIII 221530Z 26004MPS 9999 -SHRA OVC031CB 06/06 Q1019 R30/290150 NOSIG RMK QFE719/0959
UIII 221500Z 27004MPS 9999 -SHRA BKN038CB 06/06 Q1019 R30/CLRD60 NOSIG RMK QFE719/0959
UIII 221430Z 27005MPS 9999 -SHRA BKN037CB 06/05 Q1019 R30/60D NOSIG RMK QFE719/0959
UIII 221400Z 27004MPS 9999 BKN037CB 06/05 Q1019 R30/CLRD60 NOSIG RMK QFE719/0959
UIII 221330Z 27004MPS 9999 BKN043CB 07/05 Q1018 R30/60D NOSIG RMK QFE719/0959
UIII 221300Z 28005MPS 9999 -SHRA BKN039CB 07/05 Q1018 R30/60D NOSIG RMK QFE719/0958
UIII 221230Z 29005MPS 9999 -SHRA SCT015CB 07/06 Q1018 R30/60D NOSIG RMK QFE719/0958
UIII 221200Z 28004MPS 9999 -SHRA SCT017CB 07/05 Q1018 R30/CLRD60 NOSIG RMK QFE718/0958
UIII 221130Z 29003MPS 9999 -SHRA SCT023CB 07/05 Q1017 R30/CLRD60 NOSIG RMK QFE718/0958
UIII 221100Z 29005MPS 9999 SCT020CB 08/04 Q1017 R30/60D NOSIG RMK QFE718/0957
UIII 221030Z 29005MPS CAVOK 08/04 Q1017 R30/CLRD60 NOSIG RMK QFE718/0957
UIII 221000Z 29006MPS CAVOK 08/03 Q1016 R30/CLRD60 NOSIG RMK QFE717/0957
UIII 220930Z 29007MPS CAVOK 09/03 Q1016 R30/60D NOSIG RMK QFE717/0956
UIII 220900Z 30006MPS CAVOK 09/03 Q1016 R30/CLRD60 NOSIG RMK QFE717/0956
UIII 220830Z 31006MPS CAVOK 10/02 Q1015 R30/60D NOSIG RMK QFE717/0956
UIII 220800Z 31005MPS CAVOK 10/02 Q1015 R30/60D NOSIG RMK QFE717/0956
UIII 220730Z 30005MPS CAVOK 10/02 Q1015 R30/CLRD60 NOSIG RMK QFE717/0956
UIII 220700Z 29005MPS CAVOK 10/03 Q1015 R30/CLRD60 NOSIG RMK QFE716/0955
UIII 220630Z 35004MPS CAVOK 11/01 Q1014 R30/60D NOSIG RMK QFE716/0955
UIII 220600Z 35005MPS 280V010 CAVOK 11/M00 Q1014 R30/CLRD60 NOSIG RMK QFE716/0955
UIII 220530Z 35004MPS 320V030 CAVOK 11/00 Q1014 R30/60D NOSIG RMK QFE716/0955
UIII 220500Z 31005MPS CAVOK 10/04 Q1015 R30/60D NOSIG RMK QFE716/0955
UIII 220430Z 29005MPS CAVOK 09/03 Q1015 R30/CLRD60 NOSIG RMK QFE717/0956
UIII 220400Z 28005MPS CAVOK 09/04 Q1015 R30/CLRD60 NOSIG RMK QFE717/0956
UIII 220330Z 29004MPS CAVOK 09/04 Q1015 R30/CLRD60 NOSIG RMK QFE717/0956
UIII 220300Z 29003MPS 250V320 CAVOK 08/05 Q1015 R30/60D NOSIG RMK QFE717/0956
UIII 220230Z 31002MPS 260V350 CAVOK 07/06 Q1016 R30/CLRD60 NOSIG RMK QFE717/0956
UIII 220200Z 33002MPS 300V020 CAVOK 06/06 Q1015 R30/CLRD60 NOSIG RMK QFE717/0956
UIII 220130Z 32002MPS CAVOK 05/05 Q1015 R12/CLRD60 NOSIG RMK QFE719/0959
UIII 220100Z VRB01MPS CAVOK 03/03 Q1015 R12/60D NOSIG RMK QFE719/0959
UIII 220030Z 04002MPS CAVOK 02/02 Q1015 R12/CLRD60 NOSIG RMK QFE719/0959
UIII 220000Z VRB01MPS CAVOK 02/02 Q1015 R12/60D NOSIG RMK QFE719/0958
UIII 212330Z 06002MPS 030V090 CAVOK 01/01 Q1015 R12/CLRD60 NOSIG RMK QFE719/0958
UIII 212300Z 04002MPS 010V080 CAVOK 01/01 Q1014 R12/60D NOSIG RMK QFE718/0958
UIII 212230Z 10002MPS CAVOK 01/01 Q1014 R12/60D NOSIG RMK QFE718/0958
UIII 212200Z 06002MPS CAVOK 00/00 Q1014 R12/60D NOSIG RMK QFE718/0958
UIII 212130Z 07002MPS CAVOK 00/00 Q1014 R12/CLRD60 NOSIG RMK QFE718/0958
UIII 212100Z 08003MPS CAVOK 01/01 Q1014 R12/60D NOSIG RMK QFE718/0958
UIII 212030Z 09002MPS 060V120 CAVOK 02/02 Q1014 R12/60D NOSIG RMK QFE718/0958
UIII 212000Z 06002MPS CAVOK 01/01 Q1014 R12/60D NOSIG RMK QFE718/0957
UIII 211930Z VRB01MPS CAVOK 02/02 Q1014 R12/60D NOSIG RMK QFE718/0957